sensor_id;sensor_type;location;lat;lon;timestamp;temperature;humidity
60473;DHT22;46318;52.716;6.444;2024-01-15T00:02:08;1.10;100.00
60473;DHT22;46318;52.716;6.444;2024-01-15T00:04:40;1.10;100.00
60473;DHT22;46318;52.716;6.444;2024-01-15T00:07:07;1.10;100.00
60473;DHT22;46318;52.716;6.444;2024-01-15T00:09:33;1.10;100.00
60473;DHT22;46318;52.716;6.444;2024-01-15T00:11:59;1.10;100.00
60473;DHT22;46318;52.716;6.444;2024-01-15T00:14:25;1.10;100.00
60473;DHT22;46318;52.716;6.444;2024-01-15T00:16:51;1.10;100.00
60473;DHT22;46318;52.716;6.444;2024-01-15T00:19:17;1.10;100.00
60473;DHT22;46318;52.716;6.444;2024-01-15T00:21:44;1.10;100.00
60473;DHT22;46318;52.716;6.444;2024-01-15T00:24:10;1.10;100.00
60473;DHT22;46318;52.716;6.444;2024-01-15T00:26:36;1.10;100.00
60473;DHT22;46318;52.716;6.444;2024-01-15T00:29:02;1.10;100.00
60473;DHT22;46318;52.716;6.444;2024-01-15T00:31:28;1.10;100.00
60473;DHT22;46318;52.716;6.444;2024-01-15T00:33:55;1.10;100.00
60473;DHT22;46318;52.716;6.444;2024-01-15T00:36:23;1.10;100.00
60473;DHT22;46318;52.716;6.444;2024-01-15T00:38:48;1.10;100.00
60473;DHT22;46318;52.716;6.444;2024-01-15T00:41:15;1.10;100.00
60473;DHT22;46318;52.716;6.444;2024-01-15T00:43:41;1.10;100.00
60473;DHT22;46318;52.716;6.444;2024-01-15T00:46:06;1.10;100.00
60473;DHT22;46318;52.716;6.444;2024-01-15T00:48:32;1.10;100.00
60473;DHT22;46318;52.716;6.444;2024-01-15T00:50:58;1.10;100.00
60473;DHT22;46318;52.716;6.444;2024-01-15T00:53:28;1.10;100.00
60473;DHT22;46318;52.716;6.444;2024-01-15T00:55:54;1.10;100.00
60473;DHT22;46318;52.716;6.444;2024-01-15T00:58:20;1.10;100.00
60473;DHT22;46318;52.716;6.444;2024-01-15T01:00:46;1.10;100.00
60473;DHT22;46318;52.716;6.444;2024-01-15T01:03:12;1.10;100.00
60473;DHT22;46318;52.716;6.444;2024-01-15T01:05:37;1.10;100.00
60473;DHT22;46318;52.716;6.444;2024-01-15T01:08:04;1.00;100.00
60473;DHT22;46318;52.716;6.444;2024-01-15T01:10:29;1.00;100.00
60473;DHT22;46318;52.716;6.444;2024-01-15T01:12:56;1.00;100.00
60473;DHT22;46318;52.716;6.444;2024-01-15T01:15:22;1.00;100.00
60473;DHT22;46318;52.716;6.444;2024-01-15T01:17:48;1.00;100.00
60473;DHT22;46318;52.716;6.444;2024-01-15T01:20:13;1.00;100.00
60473;DHT22;46318;52.716;6.444;2024-01-15T01:22:41;1.00;100.00
60473;DHT22;46318;52.716;6.444;2024-01-15T01:25:07;1.00;100.00
60473;DHT22;46318;52.716;6.444;2024-01-15T01:27:33;0.90;100.00
60473;DHT22;46318;52.716;6.444;2024-01-15T01:29:59;1.00;100.00
60473;DHT22;46318;52.716;6.444;2024-01-15T01:32:25;1.00;100.00
60473;DHT22;46318;52.716;6.444;2024-01-15T01:34:50;1.00;100.00
60473;DHT22;46318;52.716;6.444;2024-01-15T01:37:16;1.00;100.00
60473;DHT22;46318;52.716;6.444;2024-01-15T01:39:42;1.00;100.00
60473;DHT22;46318;52.716;6.444;2024-01-15T01:42:09;1.10;100.00
60473;DHT22;46318;52.716;6.444;2024-01-15T01:44:35;1.10;100.00
60473;DHT22;46318;52.716;6.444;2024-01-15T01:47:01;1.20;100.00
60473;DHT22;46318;52.716;6.444;2024-01-15T01:49:28;1.20;100.00
60473;DHT22;46318;52.716;6.444;2024-01-15T01:51:57;1.20;100.00
60473;DHT22;46318;52.716;6.444;2024-01-15T01:54:25;1.20;100.00
60473;DHT22;46318;52.716;6.444;2024-01-15T01:56:52;1.20;100.00
60473;DHT22;46318;52.716;6.444;2024-01-15T01:59:18;1.20;100.00
60473;DHT22;46318;52.716;6.444;2024-01-15T02:01:44;1.20;100.00
60473;DHT22;46318;52.716;6.444;2024-01-15T02:04:11;1.20;100.00
60473;DHT22;46318;52.716;6.444;2024-01-15T02:06:37;1.20;100.00
60473;DHT22;46318;52.716;6.444;2024-01-15T02:09:03;1.20;100.00
60473;DHT22;46318;52.716;6.444;2024-01-15T02:11:32;1.20;100.00
60473;DHT22;46318;52.716;6.444;2024-01-15T02:13:57;1.20;100.00
60473;DHT22;46318;52.716;6.444;2024-01-15T02:16:23;1.20;100.00
60473;DHT22;46318;52.716;6.444;2024-01-15T02:18:49;1.20;100.00
60473;DHT22;46318;52.716;6.444;2024-01-15T02:21:15;1.20;100.00
60473;DHT22;46318;52.716;6.444;2024-01-15T02:23:41;1.20;100.00
60473;DHT22;46318;52.716;6.444;2024-01-15T02:26:07;1.10;100.00
60473;DHT22;46318;52.716;6.444;2024-01-15T02:28:34;1.10;100.00
60473;DHT22;46318;52.716;6.444;2024-01-15T02:31:00;1.10;100.00
60473;DHT22;46318;52.716;6.444;2024-01-15T02:33:26;1.00;100.00
60473;DHT22;46318;52.716;6.444;2024-01-15T02:35:51;1.00;100.00
60473;DHT22;46318;52.716;6.444;2024-01-15T02:38:17;1.00;100.00
60473;DHT22;46318;52.716;6.444;2024-01-15T02:40:44;1.00;100.00
60473;DHT22;46318;52.716;6.444;2024-01-15T02:43:10;1.00;100.00
60473;DHT22;46318;52.716;6.444;2024-01-15T02:45:36;1.00;100.00
60473;DHT22;46318;52.716;6.444;2024-01-15T02:48:02;1.00;100.00
60473;DHT22;46318;52.716;6.444;2024-01-15T02:50:28;1.00;100.00
60473;DHT22;46318;52.716;6.444;2024-01-15T02:52:54;1.00;100.00
60473;DHT22;46318;52.716;6.444;2024-01-15T02:55:19;1.00;100.00
60473;DHT22;46318;52.716;6.444;2024-01-15T02:57:45;1.00;100.00
60473;DHT22;46318;52.716;6.444;2024-01-15T03:00:11;1.00;100.00
60473;DHT22;46318;52.716;6.444;2024-01-15T03:02:38;1.00;100.00
60473;DHT22;46318;52.716;6.444;2024-01-15T03:05:10;1.00;100.00
60473;DHT22;46318;52.716;6.444;2024-01-15T03:07:36;1.00;100.00
60473;DHT22;46318;52.716;6.444;2024-01-15T03:10:02;1.00;100.00
60473;DHT22;46318;52.716;6.444;2024-01-15T03:12:28;1.00;100.00
60473;DHT22;46318;52.716;6.444;2024-01-15T03:14:53;1.00;100.00
60473;DHT22;46318;52.716;6.444;2024-01-15T03:17:19;1.00;100.00
60473;DHT22;46318;52.716;6.444;2024-01-15T03:19:45;1.00;100.00
60473;DHT22;46318;52.716;6.444;2024-01-15T03:22:11;1.00;100.00
60473;DHT22;46318;52.716;6.444;2024-01-15T03:24:36;1.00;100.00
60473;DHT22;46318;52.716;6.444;2024-01-15T03:27:02;1.00;100.00
60473;DHT22;46318;52.716;6.444;2024-01-15T03:29:28;1.00;100.00
60473;DHT22;46318;52.716;6.444;2024-01-15T03:31:54;1.10;100.00
60473;DHT22;46318;52.716;6.444;2024-01-15T03:34:20;1.10;100.00
60473;DHT22;46318;52.716;6.444;2024-01-15T03:36:46;1.10;100.00
60473;DHT22;46318;52.716;6.444;2024-01-15T03:39:11;1.10;100.00
60473;DHT22;46318;52.716;6.444;2024-01-15T03:41:37;1.10;100.00
60473;DHT22;46318;52.716;6.444;2024-01-15T03:44:03;1.10;100.00
60473;DHT22;46318;52.716;6.444;2024-01-15T03:46:29;1.10;100.00
60473;DHT22;46318;52.716;6.444;2024-01-15T03:48:55;1.20;100.00
60473;DHT22;46318;52.716;6.444;2024-01-15T03:51:21;1.10;100.00
60473;DHT22;46318;52.716;6.444;2024-01-15T03:53:46;1.10;100.00
60473;DHT22;46318;52.716;6.444;2024-01-15T03:56:12;1.10;100.00
60473;DHT22;46318;52.716;6.444;2024-01-15T03:58:38;1.20;100.00
60473;DHT22;46318;52.716;6.444;2024-01-15T04:01:08;1.20;100.00
60473;DHT22;46318;52.716;6.444;2024-01-15T04:03:35;1.20;100.00
60473;DHT22;46318;52.716;6.444;2024-01-15T04:06:01;1.20;100.00
60473;DHT22;46318;52.716;6.444;2024-01-15T04:08:27;1.20;100.00
60473;DHT22;46318;52.716;6.444;2024-01-15T04:10:52;1.20;100.00
60473;DHT22;46318;52.716;6.444;2024-01-15T04:13:18;1.20;100.00
60473;DHT22;46318;52.716;6.444;2024-01-15T04:15:44;1.20;100.00
60473;DHT22;46318;52.716;6.444;2024-01-15T04:18:09;1.20;100.00
60473;DHT22;46318;52.716;6.444;2024-01-15T04:20:35;1.20;100.00
60473;DHT22;46318;52.716;6.444;2024-01-15T04:23:01;1.20;100.00
60473;DHT22;46318;52.716;6.444;2024-01-15T04:25:27;1.20;100.00
60473;DHT22;46318;52.716;6.444;2024-01-15T04:27:53;1.20;100.00
60473;DHT22;46318;52.716;6.444;2024-01-15T04:30:19;1.20;100.00
60473;DHT22;46318;52.716;6.444;2024-01-15T04:32:44;1.20;100.00
60473;DHT22;46318;52.716;6.444;2024-01-15T04:35:10;1.20;100.00
60473;DHT22;46318;52.716;6.444;2024-01-15T04:37:38;1.20;100.00
60473;DHT22;46318;52.716;6.444;2024-01-15T04:40:05;1.20;100.00
60473;DHT22;46318;52.716;6.444;2024-01-15T04:42:31;1.20;100.00
60473;DHT22;46318;52.716;6.444;2024-01-15T04:44:57;1.20;100.00
60473;DHT22;46318;52.716;6.444;2024-01-15T04:47:23;1.20;100.00
60473;DHT22;46318;52.716;6.444;2024-01-15T04:49:49;1.20;100.00
60473;DHT22;46318;52.716;6.444;2024-01-15T04:52:15;1.20;100.00
60473;DHT22;46318;52.716;6.444;2024-01-15T04:54:40;1.20;100.00
60473;DHT22;46318;52.716;6.444;2024-01-15T04:57:06;1.20;100.00
60473;DHT22;46318;52.716;6.444;2024-01-15T04:59:32;1.20;100.00
60473;DHT22;46318;52.716;6.444;2024-01-15T05:01:57;1.20;100.00
60473;DHT22;46318;52.716;6.444;2024-01-15T05:04:23;1.10;100.00
60473;DHT22;46318;52.716;6.444;2024-01-15T05:06:50;1.10;100.00
60473;DHT22;46318;52.716;6.444;2024-01-15T05:09:16;1.10;100.00
60473;DHT22;46318;52.716;6.444;2024-01-15T05:11:43;1.10;100.00
60473;DHT22;46318;52.716;6.444;2024-01-15T05:14:09;1.00;100.00
60473;DHT22;46318;52.716;6.444;2024-01-15T05:16:37;1.00;100.00
60473;DHT22;46318;52.716;6.444;2024-01-15T05:19:03;1.00;100.00
60473;DHT22;46318;52.716;6.444;2024-01-15T05:21:29;1.00;100.00
60473;DHT22;46318;52.716;6.444;2024-01-15T05:23:58;1.00;100.00
60473;DHT22;46318;52.716;6.444;2024-01-15T05:26:24;1.00;100.00
60473;DHT22;46318;52.716;6.444;2024-01-15T05:28:49;0.90;100.00
60473;DHT22;46318;52.716;6.444;2024-01-15T05:31:15;0.90;100.00
60473;DHT22;46318;52.716;6.444;2024-01-15T05:33:41;0.90;100.00
60473;DHT22;46318;52.716;6.444;2024-01-15T05:36:06;0.90;100.00
60473;DHT22;46318;52.716;6.444;2024-01-15T05:38:32;0.90;100.00
60473;DHT22;46318;52.716;6.444;2024-01-15T05:40:58;0.90;100.00
60473;DHT22;46318;52.716;6.444;2024-01-15T05:43:24;0.90;100.00
60473;DHT22;46318;52.716;6.444;2024-01-15T05:45:49;0.90;100.00
60473;DHT22;46318;52.716;6.444;2024-01-15T05:48:15;0.90;100.00
60473;DHT22;46318;52.716;6.444;2024-01-15T05:50:41;0.90;100.00
60473;DHT22;46318;52.716;6.444;2024-01-15T05:53:07;0.90;100.00
60473;DHT22;46318;52.716;6.444;2024-01-15T05:55:36;0.90;100.00
60473;DHT22;46318;52.716;6.444;2024-01-15T05:58:02;0.80;100.00
60473;DHT22;46318;52.716;6.444;2024-01-15T06:00:28;0.90;100.00
60473;DHT22;46318;52.716;6.444;2024-01-15T06:02:54;0.80;100.00
60473;DHT22;46318;52.716;6.444;2024-01-15T06:05:20;0.90;100.00
60473;DHT22;46318;52.716;6.444;2024-01-15T06:07:46;0.80;100.00
60473;DHT22;46318;52.716;6.444;2024-01-15T06:10:12;0.80;100.00
60473;DHT22;46318;52.716;6.444;2024-01-15T06:12:37;0.80;100.00
60473;DHT22;46318;52.716;6.444;2024-01-15T06:15:03;0.80;100.00
60473;DHT22;46318;52.716;6.444;2024-01-15T06:17:30;0.80;100.00
60473;DHT22;46318;52.716;6.444;2024-01-15T06:19:56;0.80;100.00
60473;DHT22;46318;52.716;6.444;2024-01-15T06:22:23;0.80;100.00
60473;DHT22;46318;52.716;6.444;2024-01-15T06:24:49;0.80;100.00
60473;DHT22;46318;52.716;6.444;2024-01-15T06:27:15;0.80;100.00
60473;DHT22;46318;52.716;6.444;2024-01-15T06:29:45;0.80;100.00
60473;DHT22;46318;52.716;6.444;2024-01-15T06:32:12;0.80;100.00
60473;DHT22;46318;52.716;6.444;2024-01-15T06:34:39;0.80;100.00
60473;DHT22;46318;52.716;6.444;2024-01-15T06:37:05;0.80;100.00
60473;DHT22;46318;52.716;6.444;2024-01-15T06:39:31;0.80;100.00
60473;DHT22;46318;52.716;6.444;2024-01-15T06:41:56;0.80;100.00
60473;DHT22;46318;52.716;6.444;2024-01-15T06:44:22;0.80;100.00
60473;DHT22;46318;52.716;6.444;2024-01-15T06:46:48;0.80;100.00
60473;DHT22;46318;52.716;6.444;2024-01-15T06:49:14;0.80;100.00
60473;DHT22;46318;52.716;6.444;2024-01-15T06:51:42;0.80;100.00
60473;DHT22;46318;52.716;6.444;2024-01-15T06:54:08;0.80;100.00
60473;DHT22;46318;52.716;6.444;2024-01-15T06:56:34;0.80;100.00
60473;DHT22;46318;52.716;6.444;2024-01-15T06:59:00;0.70;100.00
60473;DHT22;46318;52.716;6.444;2024-01-15T07:01:25;0.70;100.00
60473;DHT22;46318;52.716;6.444;2024-01-15T07:03:51;0.70;100.00
60473;DHT22;46318;52.716;6.444;2024-01-15T07:06:17;0.70;100.00
60473;DHT22;46318;52.716;6.444;2024-01-15T07:08:43;0.70;100.00
60473;DHT22;46318;52.716;6.444;2024-01-15T07:11:09;0.70;100.00
60473;DHT22;46318;52.716;6.444;2024-01-15T07:13:36;0.70;100.00
60473;DHT22;46318;52.716;6.444;2024-01-15T07:16:03;0.70;100.00
60473;DHT22;46318;52.716;6.444;2024-01-15T07:18:29;0.70;100.00
60473;DHT22;46318;52.716;6.444;2024-01-15T07:20:54;0.70;100.00
60473;DHT22;46318;52.716;6.444;2024-01-15T07:23:20;0.70;100.00
60473;DHT22;46318;52.716;6.444;2024-01-15T07:25:46;0.70;100.00
60473;DHT22;46318;52.716;6.444;2024-01-15T07:28:12;0.70;100.00
60473;DHT22;46318;52.716;6.444;2024-01-15T07:30:37;0.70;100.00
60473;DHT22;46318;52.716;6.444;2024-01-15T07:33:06;0.70;100.00
60473;DHT22;46318;52.716;6.444;2024-01-15T07:35:32;0.70;100.00
60473;DHT22;46318;52.716;6.444;2024-01-15T07:37:58;0.70;100.00
60473;DHT22;46318;52.716;6.444;2024-01-15T07:40:29;0.70;100.00
60473;DHT22;46318;52.716;6.444;2024-01-15T07:42:55;0.70;100.00
60473;DHT22;46318;52.716;6.444;2024-01-15T07:45:21;0.70;100.00
60473;DHT22;46318;52.716;6.444;2024-01-15T07:47:47;0.60;100.00
60473;DHT22;46318;52.716;6.444;2024-01-15T07:50:12;0.70;100.00
60473;DHT22;46318;52.716;6.444;2024-01-15T07:52:40;0.70;100.00
60473;DHT22;46318;52.716;6.444;2024-01-15T07:55:09;0.60;100.00
60473;DHT22;46318;52.716;6.444;2024-01-15T07:57:34;0.60;100.00
60473;DHT22;46318;52.716;6.444;2024-01-15T08:00:02;0.70;100.00
60473;DHT22;46318;52.716;6.444;2024-01-15T08:02:30;0.60;100.00
60473;DHT22;46318;52.716;6.444;2024-01-15T08:04:57;0.60;100.00
60473;DHT22;46318;52.716;6.444;2024-01-15T08:07:24;0.60;100.00
60473;DHT22;46318;52.716;6.444;2024-01-15T08:09:52;0.60;100.00
60473;DHT22;46318;52.716;6.444;2024-01-15T08:12:20;0.60;100.00
60473;DHT22;46318;52.716;6.444;2024-01-15T08:14:46;0.60;100.00
60473;DHT22;46318;52.716;6.444;2024-01-15T08:17:12;0.60;100.00
60473;DHT22;46318;52.716;6.444;2024-01-15T08:19:37;0.60;100.00
60473;DHT22;46318;52.716;6.444;2024-01-15T08:22:06;0.60;100.00
60473;DHT22;46318;52.716;6.444;2024-01-15T08:24:32;0.60;100.00
60473;DHT22;46318;52.716;6.444;2024-01-15T08:26:57;0.60;100.00
60473;DHT22;46318;52.716;6.444;2024-01-15T08:29:23;0.60;100.00
60473;DHT22;46318;52.716;6.444;2024-01-15T08:31:50;0.60;100.00
60473;DHT22;46318;52.716;6.444;2024-01-15T08:34:16;0.60;100.00
60473;DHT22;46318;52.716;6.444;2024-01-15T08:36:42;0.60;100.00
60473;DHT22;46318;52.716;6.444;2024-01-15T08:39:08;0.60;100.00
60473;DHT22;46318;52.716;6.444;2024-01-15T08:41:34;0.60;100.00
60473;DHT22;46318;52.716;6.444;2024-01-15T08:44:01;0.70;100.00
60473;DHT22;46318;52.716;6.444;2024-01-15T08:46:28;0.70;100.00
60473;DHT22;46318;52.716;6.444;2024-01-15T08:48:54;0.70;100.00
60473;DHT22;46318;52.716;6.444;2024-01-15T08:51:19;0.70;100.00
60473;DHT22;46318;52.716;6.444;2024-01-15T08:53:45;0.70;100.00
60473;DHT22;46318;52.716;6.444;2024-01-15T08:56:11;0.80;100.00
60473;DHT22;46318;52.716;6.444;2024-01-15T08:58:37;0.80;100.00
60473;DHT22;46318;52.716;6.444;2024-01-15T09:01:02;0.80;100.00
60473;DHT22;46318;52.716;6.444;2024-01-15T09:03:28;0.80;100.00
60473;DHT22;46318;52.716;6.444;2024-01-15T09:05:55;0.80;100.00
60473;DHT22;46318;52.716;6.444;2024-01-15T09:08:21;0.80;100.00
60473;DHT22;46318;52.716;6.444;2024-01-15T09:10:47;0.80;100.00
60473;DHT22;46318;52.716;6.444;2024-01-15T09:13:13;0.80;100.00
60473;DHT22;46318;52.716;6.444;2024-01-15T09:15:38;0.80;100.00
60473;DHT22;46318;52.716;6.444;2024-01-15T09:18:04;0.70;100.00
60473;DHT22;46318;52.716;6.444;2024-01-15T09:20:30;0.80;100.00
60473;DHT22;46318;52.716;6.444;2024-01-15T09:22:56;0.80;100.00
60473;DHT22;46318;52.716;6.444;2024-01-15T09:25:22;0.90;100.00
60473;DHT22;46318;52.716;6.444;2024-01-15T09:27:48;0.80;100.00
60473;DHT22;46318;52.716;6.444;2024-01-15T09:30:14;0.90;100.00
60473;DHT22;46318;52.716;6.444;2024-01-15T09:32:40;0.90;100.00
60473;DHT22;46318;52.716;6.444;2024-01-15T09:35:06;1.00;100.00
60473;DHT22;46318;52.716;6.444;2024-01-15T09:37:32;1.10;100.00
60473;DHT22;46318;52.716;6.444;2024-01-15T09:39:57;1.20;100.00
60473;DHT22;46318;52.716;6.444;2024-01-15T09:42:24;1.20;100.00
60473;DHT22;46318;52.716;6.444;2024-01-15T09:44:51;1.20;100.00
60473;DHT22;46318;52.716;6.444;2024-01-15T09:47:18;1.20;100.00
60473;DHT22;46318;52.716;6.444;2024-01-15T09:49:44;1.20;100.00
60473;DHT22;46318;52.716;6.444;2024-01-15T09:52:11;1.20;100.00
60473;DHT22;46318;52.716;6.444;2024-01-15T09:54:37;1.20;100.00
60473;DHT22;46318;52.716;6.444;2024-01-15T09:57:04;1.20;100.00
60473;DHT22;46318;52.716;6.444;2024-01-15T09:59:31;1.20;100.00
60473;DHT22;46318;52.716;6.444;2024-01-15T10:01:58;1.10;100.00
60473;DHT22;46318;52.716;6.444;2024-01-15T10:04:26;1.10;100.00
60473;DHT22;46318;52.716;6.444;2024-01-15T10:06:52;1.00;100.00
60473;DHT22;46318;52.716;6.444;2024-01-15T10:09:19;1.00;100.00
60473;DHT22;46318;52.716;6.444;2024-01-15T10:11:45;1.00;100.00
60473;DHT22;46318;52.716;6.444;2024-01-15T10:14:11;0.90;100.00
60473;DHT22;46318;52.716;6.444;2024-01-15T10:16:38;1.00;100.00
60473;DHT22;46318;52.716;6.444;2024-01-15T10:19:05;1.00;100.00
60473;DHT22;46318;52.716;6.444;2024-01-15T10:21:34;1.10;100.00
60473;DHT22;46318;52.716;6.444;2024-01-15T10:24:01;1.10;100.00
60473;DHT22;46318;52.716;6.444;2024-01-15T10:26:29;1.20;100.00
60473;DHT22;46318;52.716;6.444;2024-01-15T10:28:55;1.10;100.00
60473;DHT22;46318;52.716;6.444;2024-01-15T10:31:21;1.10;100.00
60473;DHT22;46318;52.716;6.444;2024-01-15T10:33:50;1.20;100.00
60473;DHT22;46318;52.716;6.444;2024-01-15T10:36:17;1.20;100.00
60473;DHT22;46318;52.716;6.444;2024-01-15T10:38:44;1.30;100.00
60473;DHT22;46318;52.716;6.444;2024-01-15T10:41:11;1.30;100.00
60473;DHT22;46318;52.716;6.444;2024-01-15T10:43:37;1.30;100.00
60473;DHT22;46318;52.716;6.444;2024-01-15T10:46:03;1.50;100.00
60473;DHT22;46318;52.716;6.444;2024-01-15T10:48:29;1.60;100.00
60473;DHT22;46318;52.716;6.444;2024-01-15T10:50:57;1.70;100.00
60473;DHT22;46318;52.716;6.444;2024-01-15T10:53:24;1.70;100.00
60473;DHT22;46318;52.716;6.444;2024-01-15T10:55:53;1.80;100.00
60473;DHT22;46318;52.716;6.444;2024-01-15T10:58:20;1.90;100.00
60473;DHT22;46318;52.716;6.444;2024-01-15T11:00:47;1.90;100.00
60473;DHT22;46318;52.716;6.444;2024-01-15T11:03:13;1.90;100.00
60473;DHT22;46318;52.716;6.444;2024-01-15T11:05:42;1.90;100.00
60473;DHT22;46318;52.716;6.444;2024-01-15T11:08:09;1.90;100.00
60473;DHT22;46318;52.716;6.444;2024-01-15T11:10:51;1.90;100.00
60473;DHT22;46318;52.716;6.444;2024-01-15T11:18:36;1.80;100.00
60473;DHT22;46318;52.716;6.444;2024-01-15T11:23:50;1.60;100.00
60473;DHT22;46318;52.716;6.444;2024-01-15T11:26:45;1.50;100.00
60473;DHT22;46318;52.716;6.444;2024-01-15T11:31:56;1.40;100.00
60473;DHT22;46318;52.716;6.444;2024-01-15T11:34:56;1.40;100.00
60473;DHT22;46318;52.716;6.444;2024-01-15T11:40:22;1.40;100.00
60473;DHT22;46318;52.716;6.444;2024-01-15T11:42:48;1.40;100.00
60473;DHT22;46318;52.716;6.444;2024-01-15T11:45:21;1.40;100.00
60473;DHT22;46318;52.716;6.444;2024-01-15T11:48:10;1.40;100.00
60473;DHT22;46318;52.716;6.444;2024-01-15T11:50:44;1.50;100.00
60473;DHT22;46318;52.716;6.444;2024-01-15T11:55:58;1.60;100.00
60473;DHT22;46318;52.716;6.444;2024-01-15T11:58:25;1.60;100.00
60473;DHT22;46318;52.716;6.444;2024-01-15T12:00:51;1.60;100.00
60473;DHT22;46318;52.716;6.444;2024-01-15T12:03:21;1.60;100.00
60473;DHT22;46318;52.716;6.444;2024-01-15T12:05:47;1.60;100.00
60473;DHT22;46318;52.716;6.444;2024-01-15T12:08:13;1.60;100.00
60473;DHT22;46318;52.716;6.444;2024-01-15T12:10:40;1.60;100.00
60473;DHT22;46318;52.716;6.444;2024-01-15T12:13:16;1.60;100.00
60473;DHT22;46318;52.716;6.444;2024-01-15T12:15:44;1.60;100.00
60473;DHT22;46318;52.716;6.444;2024-01-15T12:18:15;1.70;100.00
60473;DHT22;46318;52.716;6.444;2024-01-15T12:20:42;1.70;100.00
60473;DHT22;46318;52.716;6.444;2024-01-15T12:23:09;1.70;100.00
60473;DHT22;46318;52.716;6.444;2024-01-15T12:25:39;1.60;100.00
60473;DHT22;46318;52.716;6.444;2024-01-15T12:28:06;1.70;100.00
60473;DHT22;46318;52.716;6.444;2024-01-15T12:30:33;1.70;100.00
60473;DHT22;46318;52.716;6.444;2024-01-15T12:33:02;1.60;100.00
60473;DHT22;46318;52.716;6.444;2024-01-15T12:35:31;1.60;100.00
60473;DHT22;46318;52.716;6.444;2024-01-15T12:38:00;1.60;100.00
60473;DHT22;46318;52.716;6.444;2024-01-15T12:40:28;1.50;100.00
60473;DHT22;46318;52.716;6.444;2024-01-15T12:42:54;1.50;100.00
60473;DHT22;46318;52.716;6.444;2024-01-15T12:45:20;1.50;100.00
60473;DHT22;46318;52.716;6.444;2024-01-15T12:47:46;1.40;100.00
60473;DHT22;46318;52.716;6.444;2024-01-15T12:50:12;1.40;100.00
60473;DHT22;46318;52.716;6.444;2024-01-15T12:52:42;1.40;100.00
60473;DHT22;46318;52.716;6.444;2024-01-15T12:55:09;1.40;100.00
60473;DHT22;46318;52.716;6.444;2024-01-15T12:57:35;1.40;100.00
60473;DHT22;46318;52.716;6.444;2024-01-15T13:00:03;1.40;100.00
60473;DHT22;46318;52.716;6.444;2024-01-15T13:02:40;1.40;100.00
60473;DHT22;46318;52.716;6.444;2024-01-15T13:05:08;1.50;100.00
60473;DHT22;46318;52.716;6.444;2024-01-15T13:07:36;1.50;100.00
60473;DHT22;46318;52.716;6.444;2024-01-15T13:10:03;1.50;100.00
60473;DHT22;46318;52.716;6.444;2024-01-15T13:12:29;1.60;100.00
60473;DHT22;46318;52.716;6.444;2024-01-15T13:14:56;1.60;100.00
60473;DHT22;46318;52.716;6.444;2024-01-15T13:17:23;1.60;100.00
60473;DHT22;46318;52.716;6.444;2024-01-15T13:19:49;1.60;100.00
60473;DHT22;46318;52.716;6.444;2024-01-15T13:22:15;1.60;100.00
60473;DHT22;46318;52.716;6.444;2024-01-15T13:24:41;1.60;100.00
60473;DHT22;46318;52.716;6.444;2024-01-15T13:27:08;1.60;100.00
60473;DHT22;46318;52.716;6.444;2024-01-15T13:29:34;1.60;100.00
60473;DHT22;46318;52.716;6.444;2024-01-15T13:32:00;1.60;100.00
60473;DHT22;46318;52.716;6.444;2024-01-15T13:34:26;1.70;100.00
60473;DHT22;46318;52.716;6.444;2024-01-15T13:36:51;1.70;100.00
60473;DHT22;46318;52.716;6.444;2024-01-15T13:39:18;1.70;100.00
60473;DHT22;46318;52.716;6.444;2024-01-15T13:41:49;1.70;100.00
60473;DHT22;46318;52.716;6.444;2024-01-15T13:44:15;1.70;100.00
60473;DHT22;46318;52.716;6.444;2024-01-15T13:46:41;1.70;100.00
60473;DHT22;46318;52.716;6.444;2024-01-15T13:49:07;1.70;100.00
60473;DHT22;46318;52.716;6.444;2024-01-15T13:51:35;1.70;100.00
60473;DHT22;46318;52.716;6.444;2024-01-15T13:54:02;1.60;100.00
60473;DHT22;46318;52.716;6.444;2024-01-15T13:56:30;1.60;100.00
60473;DHT22;46318;52.716;6.444;2024-01-15T13:58:58;1.50;100.00
60473;DHT22;46318;52.716;6.444;2024-01-15T14:01:25;1.50;100.00
60473;DHT22;46318;52.716;6.444;2024-01-15T14:03:51;1.50;100.00
60473;DHT22;46318;52.716;6.444;2024-01-15T14:06:16;1.50;100.00
60473;DHT22;46318;52.716;6.444;2024-01-15T14:08:44;1.50;100.00
60473;DHT22;46318;52.716;6.444;2024-01-15T14:11:10;1.50;100.00
60473;DHT22;46318;52.716;6.444;2024-01-15T14:13:36;1.50;100.00
60473;DHT22;46318;52.716;6.444;2024-01-15T14:16:02;1.50;100.00
60473;DHT22;46318;52.716;6.444;2024-01-15T14:18:30;1.50;100.00
60473;DHT22;46318;52.716;6.444;2024-01-15T14:20:57;1.50;100.00
60473;DHT22;46318;52.716;6.444;2024-01-15T14:26:14;1.50;100.00
60473;DHT22;46318;52.716;6.444;2024-01-15T14:28:40;1.50;100.00
60473;DHT22;46318;52.716;6.444;2024-01-15T14:31:06;1.50;100.00
60473;DHT22;46318;52.716;6.444;2024-01-15T14:33:31;1.60;100.00
60473;DHT22;46318;52.716;6.444;2024-01-15T14:35:59;1.60;100.00
60473;DHT22;46318;52.716;6.444;2024-01-15T14:41:35;1.70;100.00
60473;DHT22;46318;52.716;6.444;2024-01-15T14:44:01;1.70;100.00
60473;DHT22;46318;52.716;6.444;2024-01-15T14:46:26;1.80;100.00
60473;DHT22;46318;52.716;6.444;2024-01-15T14:48:53;1.80;100.00
60473;DHT22;46318;52.716;6.444;2024-01-15T14:51:22;1.90;100.00
60473;DHT22;46318;52.716;6.444;2024-01-15T14:53:48;2.00;100.00
60473;DHT22;46318;52.716;6.444;2024-01-15T14:56:14;2.00;100.00
60473;DHT22;46318;52.716;6.444;2024-01-15T14:58:40;2.00;100.00
60473;DHT22;46318;52.716;6.444;2024-01-15T15:01:06;2.00;100.00
60473;DHT22;46318;52.716;6.444;2024-01-15T15:03:31;1.90;100.00
60473;DHT22;46318;52.716;6.444;2024-01-15T15:05:58;1.90;100.00
60473;DHT22;46318;52.716;6.444;2024-01-15T15:08:24;1.90;100.00
60473;DHT22;46318;52.716;6.444;2024-01-15T15:10:50;1.80;100.00
60473;DHT22;46318;52.716;6.444;2024-01-15T15:13:15;1.80;100.00
60473;DHT22;46318;52.716;6.444;2024-01-15T15:15:41;1.70;100.00
60473;DHT22;46318;52.716;6.444;2024-01-15T15:18:07;1.70;100.00
60473;DHT22;46318;52.716;6.444;2024-01-15T15:20:33;1.70;100.00
60473;DHT22;46318;52.716;6.444;2024-01-15T15:22:59;1.70;100.00
60473;DHT22;46318;52.716;6.444;2024-01-15T15:25:24;1.70;100.00
60473;DHT22;46318;52.716;6.444;2024-01-15T15:27:51;1.60;99.90
60473;DHT22;46318;52.716;6.444;2024-01-15T15:30:19;1.60;100.00
60473;DHT22;46318;52.716;6.444;2024-01-15T15:32:45;1.50;100.00
60473;DHT22;46318;52.716;6.444;2024-01-15T15:35:12;1.50;100.00
60473;DHT22;46318;52.716;6.444;2024-01-15T15:37:39;1.50;100.00
60473;DHT22;46318;52.716;6.444;2024-01-15T15:40:05;1.40;100.00
60473;DHT22;46318;52.716;6.444;2024-01-15T15:42:34;1.40;100.00
60473;DHT22;46318;52.716;6.444;2024-01-15T15:45:00;1.40;100.00
60473;DHT22;46318;52.716;6.444;2024-01-15T15:47:26;1.30;100.00
60473;DHT22;46318;52.716;6.444;2024-01-15T15:49:52;1.30;100.00